»·PEaware :: SWA213 KSJC-KLAS

SWA213 :: KSJC-KLAS

FLIGHT INFORMATION

Flight Status: Arrived
Operator:
Southwest Airlines
More flights by this operator :: More flights under this callsign
Pilot: Martin A. (6413)
Aircraft: BOEING 737-800
(B738)
More flights by this aircraft type
Origin: KSJC Mineta San Jose Intl
United States
Destination: KLAS McCarran Intl
United States
More flights between these airports :: More routes between these airports
Route: +TECKY3 TECKY NTELL Q162 ESSAA BTY SUNST4
File this flight plan on PilotEdge
Remarks:
Altitude:
(Current/Filed)
37,000ft
Speed:
(Current/Filed)
440kts
Departed: 01-Dec-17 06:20 PM
Arrived: 01-Dec-17 07:21 PM
Distance/Time
Traveled:
335nm/1:00
Distance/Time
To Go:
Arrived

Flight Plot

Page will automatically refresh every two minutes.

Flight plan parsing failed; only flown route is shown


Map Options




Map Legend


Flown Route
Filed Route
Departure Airport
Arrival Airport
Navaid (VOR, NDB)
Fix

Horizontal Profiles

Position Reports

Time Latitude Longitude Heading Altitude Ground
Speed
01-Dec-17 17:57 37.371198 -121.932476 68 38ft 0kts
01-Dec-17 17:58 37.371198 -121.932476 68 38ft 0kts
01-Dec-17 17:59 37.371198 -121.932476 68 38ft 0kts
01-Dec-17 18:00 37.371198 -121.932476 68 38ft 0kts
01-Dec-17 18:01 37.371198 -121.932476 68 38ft 0kts
01-Dec-17 18:02 37.371198 -121.932476 68 38ft 0kts
01-Dec-17 18:03 37.371198 -121.932476 68 38ft 0kts
01-Dec-17 18:04 37.371198 -121.932476 68 38ft 0kts
01-Dec-17 18:05 37.371198 -121.932476 68 38ft 0kts
01-Dec-17 18:06 37.371198 -121.932476 68 38ft 0kts
01-Dec-17 18:07 37.371198 -121.932476 68 38ft 0kts
01-Dec-17 18:08 37.371198 -121.932476 68 38ft 0kts
01-Dec-17 18:09 37.371198 -121.932476 68 38ft 0kts
01-Dec-17 18:10 37.371198 -121.932476 68 38ft 0kts
01-Dec-17 18:11 37.371198 -121.932477 68 38ft 0kts
01-Dec-17 18:12 37.371018 -121.933116 99 38ft 2kts
01-Dec-17 18:13 37.371164 -121.933405 139 38ft 0kts
01-Dec-17 18:14 37.371164 -121.933405 139 38ft 0kts
01-Dec-17 18:15 37.370435 -121.932597 137 39ft 8kts
01-Dec-17 18:16 37.368235 -121.930146 139 44ft 5kts
01-Dec-17 18:17 37.367619 -121.929480 139 45ft 1kts
01-Dec-17 18:18 37.367147 -121.928969 139 46ft 8kts
01-Dec-17 18:19 37.365534 -121.927214 139 47ft 7kts
01-Dec-17 18:20 37.364030 -121.925588 139 49ft 6kts
01-Dec-17 18:21 37.360915 -121.922185 138 53ft 18kts
01-Dec-17 18:22 37.357744 -121.918668 139 58ft 10kts
01-Dec-17 18:23 37.355601 -121.916311 139 61ft 11kts
01-Dec-17 18:24 37.353161 -121.914302 202 64ft 6kts
01-Dec-17 18:25 37.354655 -121.917919 319 63ft 72kts
01-Dec-17 18:26 37.388478 -121.951088 319 2075ft 184kts
01-Dec-17 18:27 37.435986 -121.996583 4 4755ft 244kts
01-Dec-17 18:28 37.465778 -121.929307 116 8066ft 283kts
01-Dec-17 18:29 37.405681 -121.863215 144 11299ft 306kts
01-Dec-17 18:30 37.332655 -121.791549 145 13934ft 349kts
01-Dec-17 18:31 37.258254 -121.708385 141 17012ft 370kts
01-Dec-17 18:32 37.180474 -121.620403 142 19880ft 389kts
01-Dec-17 18:33 37.098665 -121.527893 142 22483ft 407kts
01-Dec-17 18:34 37.054449 -121.395960 97 24778ft 439kts
01-Dec-17 18:35 37.038447 -121.245961 98 26893ft 453kts
01-Dec-17 18:36 37.021808 -121.090969 98 29341ft 450kts
01-Dec-17 18:37 37.005443 -120.936691 97 31540ft 445kts
01-Dec-17 18:38 36.989462 -120.784124 97 33314ft 443kts
01-Dec-17 18:39 36.973720 -120.631992 96 34936ft 440kts
01-Dec-17 18:40 36.958308 -120.481192 96 36422ft 435kts
01-Dec-17 18:41 36.943610 -120.335550 97 37120ft 444kts
01-Dec-17 18:42 36.927999 -120.178590 96 37132ft 465kts
01-Dec-17 18:43 36.911916 -120.015045 96 37136ft 487kts
01-Dec-17 18:44 36.910264 -119.845418 69 37130ft 493kts
01-Dec-17 18:45 36.963825 -119.689412 64 37123ft 490kts
01-Dec-17 18:46 37.014527 -119.530502 64 37125ft 497kts
01-Dec-17 18:47 37.066107 -119.369645 64 37127ft 504kts
01-Dec-17 18:48 37.116790 -119.212367 64 37129ft 511kts
01-Dec-17 18:49 37.169948 -119.047950 64 37183ft 512kts
01-Dec-17 18:50 37.223362 -118.883441 64 37172ft 505kts
01-Dec-17 18:51 37.274935 -118.720441 73 37152ft 505kts
01-Dec-17 18:52 37.292124 -118.544740 82 37110ft 508kts
01-Dec-17 18:53 37.307650 -118.368364 81 37108ft 508kts
01-Dec-17 18:54 37.323067 -118.196503 82 37098ft 508kts
01-Dec-17 18:55 37.339003 -118.021205 82 37100ft 508kts
01-Dec-17 18:56 37.346937 -117.845127 97 37117ft 509kts
01-Dec-17 18:57 37.330271 -117.668475 96 37104ft 509kts
01-Dec-17 18:58 37.314315 -117.492098 96 37123ft 509kts
01-Dec-17 18:59 37.299765 -117.333922 102 37134ft 508kts
01-Dec-17 19:00 37.227063 -117.190618 137 37155ft 494kts
01-Dec-17 19:01 37.141772 -117.054012 131 37146ft 497kts
01-Dec-17 19:02 37.055954 -116.925505 147 34861ft 478kts
01-Dec-17 19:03 36.940683 -116.844752 154 31371ft 472kts
01-Dec-17 19:04 36.829065 -116.767372 154 27644ft 472kts
01-Dec-17 19:05 36.737923 -116.658654 133 25569ft 433kts
01-Dec-17 19:06 36.660381 -116.548672 133 23016ft 415kts
01-Dec-17 19:07 36.586197 -116.443423 133 22585ft 406kts
01-Dec-17 19:08 36.513060 -116.339493 134 22581ft 404kts
01-Dec-17 19:09 36.439153 -116.234643 134 22578ft 404kts
01-Dec-17 19:10 36.378384 -116.149531 134 21376ft 388kts
01-Dec-17 19:11 36.301398 -116.041702 135 18624ft 349kts
01-Dec-17 19:12 36.249119 -115.968419 133 17357ft 346kts
01-Dec-17 19:13 36.187312 -115.858737 113 16018ft 329kts
01-Dec-17 19:14 36.158504 -115.769496 113 14749ft 328kts
01-Dec-17 19:15 36.125268 -115.666116 112 13756ft 321kts
01-Dec-17 19:16 36.096283 -115.563907 94 12843ft 316kts
01-Dec-17 19:17 36.094263 -115.460053 91 12033ft 289kts
01-Dec-17 19:18 36.115907 -115.370964 32 10514ft 277kts
01-Dec-17 19:19 36.185806 -115.345645 22 9089ft 268kts
01-Dec-17 19:20 36.239383 -115.299429 70 8423ft 227kts
01-Dec-17 19:21 36.228558 -115.233357 111 7637ft 177kts
01-Dec-17 19:22 36.210939 -115.177788 117 6201ft 170kts
01-Dec-17 19:23 36.185804 -115.129069 135 4726ft 166kts
01-Dec-17 19:24 36.147605 -115.122378 219 3143ft 156kts
01-Dec-17 19:25 36.111033 -115.146369 205 2343ft 147kts
01-Dec-17 19:26 36.084017 -115.161842 205 2140ft 0kts
01-Dec-17 19:27 36.081626 -115.159509 91 2138ft 19kts
01-Dec-17 19:28 36.081180 -115.153507 107 2119ft 14kts
01-Dec-17 19:29 36.082453 -115.152512 321 2111ft 0kts
01-Dec-17 19:30 36.082453 -115.152512 321 2111ft 0kts
01-Dec-17 19:31 36.082453 -115.152512 321 2111ft 0kts

Navigation Log

Ident Type
Flight plan parsing failed, navigation log unavailable